sensor_id;sensor_type;location;lat;lon;timestamp;P1;durP1;ratioP1;P2;durP2;ratioP2
17614;SDS011;8926;49.720;6.576;2022-07-11T00:01:00;0.50;;;0.50;;
17614;SDS011;8926;49.720;6.576;2022-07-11T00:03:25;0.40;;;0.40;;
17614;SDS011;8926;49.720;6.576;2022-07-11T00:05:50;0.47;;;0.47;;
17614;SDS011;8926;49.720;6.576;2022-07-11T00:08:16;0.53;;;0.50;;
17614;SDS011;8926;49.720;6.576;2022-07-11T00:10:41;0.53;;;0.50;;
17614;SDS011;8926;49.720;6.576;2022-07-11T00:13:08;0.30;;;0.30;;
17614;SDS011;8926;49.720;6.576;2022-07-11T00:15:33;0.47;;;0.47;;
17614;SDS011;8926;49.720;6.576;2022-07-11T00:17:59;0.60;;;0.60;;
17614;SDS011;8926;49.720;6.576;2022-07-11T00:20:24;0.40;;;0.40;;
17614;SDS011;8926;49.720;6.576;2022-07-11T00:22:49;0.50;;;0.50;;
17614;SDS011;8926;49.720;6.576;2022-07-11T00:25:15;0.40;;;0.40;;
17614;SDS011;8926;49.720;6.576;2022-07-11T00:27:41;0.60;;;0.60;;
17614;SDS011;8926;49.720;6.576;2022-07-11T00:30:06;0.50;;;0.50;;
17614;SDS011;8926;49.720;6.576;2022-07-11T00:32:32;0.57;;;0.57;;
17614;SDS011;8926;49.720;6.576;2022-07-11T00:34:57;0.50;;;0.50;;
17614;SDS011;8926;49.720;6.576;2022-07-11T00:37:23;0.60;;;0.30;;
17614;SDS011;8926;49.720;6.576;2022-07-11T00:39:48;0.43;;;0.43;;
17614;SDS011;8926;49.720;6.576;2022-07-11T00:42:16;0.43;;;0.43;;
17614;SDS011;8926;49.720;6.576;2022-07-11T00:44:42;0.40;;;0.40;;
17614;SDS011;8926;49.720;6.576;2022-07-11T00:47:07;0.40;;;0.40;;
17614;SDS011;8926;49.720;6.576;2022-07-11T00:49:32;0.50;;;0.50;;
17614;SDS011;8926;49.720;6.576;2022-07-11T00:51:57;0.50;;;0.50;;
17614;SDS011;8926;49.720;6.576;2022-07-11T00:54:23;0.70;;;0.40;;
17614;SDS011;8926;49.720;6.576;2022-07-11T00:56:48;0.40;;;0.40;;
17614;SDS011;8926;49.720;6.576;2022-07-11T00:59:15;0.47;;;0.47;;
17614;SDS011;8926;49.720;6.576;2022-07-11T01:01:43;0.70;;;0.70;;
17614;SDS011;8926;49.720;6.576;2022-07-11T01:04:09;0.80;;;0.50;;
17614;SDS011;8926;49.720;6.576;2022-07-11T01:06:34;0.73;;;0.73;;
17614;SDS011;8926;49.720;6.576;2022-07-11T01:09:00;0.50;;;0.50;;
17614;SDS011;8926;49.720;6.576;2022-07-11T01:11:25;0.50;;;0.50;;
17614;SDS011;8926;49.720;6.576;2022-07-11T01:13:51;0.50;;;0.50;;
17614;SDS011;8926;49.720;6.576;2022-07-11T01:16:17;0.53;;;0.53;;
17614;SDS011;8926;49.720;6.576;2022-07-11T01:18:47;0.43;;;0.43;;
17614;SDS011;8926;49.720;6.576;2022-07-11T01:23:45;0.60;;;0.53;;
17614;SDS011;8926;49.720;6.576;2022-07-11T01:26:12;0.30;;;0.30;;
17614;SDS011;8926;49.720;6.576;2022-07-11T01:28:38;0.40;;;0.40;;
17614;SDS011;8926;49.720;6.576;2022-07-11T01:31:04;0.50;;;0.50;;
17614;SDS011;8926;49.720;6.576;2022-07-11T01:33:31;0.40;;;0.40;;
17614;SDS011;8926;49.720;6.576;2022-07-11T01:35:57;0.93;;;0.60;;
17614;SDS011;8926;49.720;6.576;2022-07-11T01:38:24;0.60;;;0.60;;
17614;SDS011;8926;49.720;6.576;2022-07-11T01:40:49;0.40;;;0.40;;
17614;SDS011;8926;49.720;6.576;2022-07-11T01:43:15;0.50;;;0.50;;
17614;SDS011;8926;49.720;6.576;2022-07-11T01:45:40;0.50;;;0.50;;
17614;SDS011;8926;49.720;6.576;2022-07-11T01:48:05;0.47;;;0.47;;
17614;SDS011;8926;49.720;6.576;2022-07-11T01:50:30;0.93;;;0.93;;
17614;SDS011;8926;49.720;6.576;2022-07-11T01:52:56;0.70;;;0.70;;
17614;SDS011;8926;49.720;6.576;2022-07-11T01:55:21;0.50;;;0.50;;
17614;SDS011;8926;49.720;6.576;2022-07-11T01:57:46;0.50;;;0.50;;
17614;SDS011;8926;49.720;6.576;2022-07-11T02:00:12;0.60;;;0.60;;
17614;SDS011;8926;49.720;6.576;2022-07-11T02:02:37;0.60;;;0.60;;
17614;SDS011;8926;49.720;6.576;2022-07-11T02:05:03;0.47;;;0.47;;
17614;SDS011;8926;49.720;6.576;2022-07-11T02:07:28;0.50;;;0.50;;
17614;SDS011;8926;49.720;6.576;2022-07-11T02:10:12;0.70;;;0.60;;
17614;SDS011;8926;49.720;6.576;2022-07-11T02:12:38;0.40;;;0.40;;
17614;SDS011;8926;49.720;6.576;2022-07-11T02:15:03;0.80;;;0.80;;
17614;SDS011;8926;49.720;6.576;2022-07-11T02:17:29;0.70;;;0.70;;
17614;SDS011;8926;49.720;6.576;2022-07-11T02:19:54;0.50;;;0.50;;
17614;SDS011;8926;49.720;6.576;2022-07-11T02:22:19;0.70;;;0.70;;
17614;SDS011;8926;49.720;6.576;2022-07-11T02:24:45;0.60;;;0.60;;
17614;SDS011;8926;49.720;6.576;2022-07-11T02:27:10;0.50;;;0.50;;
17614;SDS011;8926;49.720;6.576;2022-07-11T02:29:35;0.57;;;0.57;;
17614;SDS011;8926;49.720;6.576;2022-07-11T02:32:00;0.50;;;0.50;;
17614;SDS011;8926;49.720;6.576;2022-07-11T02:34:26;0.70;;;0.70;;
17614;SDS011;8926;49.720;6.576;2022-07-11T02:36:52;0.73;;;0.70;;
17614;SDS011;8926;49.720;6.576;2022-07-11T02:39:17;0.40;;;0.40;;
17614;SDS011;8926;49.720;6.576;2022-07-11T02:41:43;0.70;;;0.70;;
17614;SDS011;8926;49.720;6.576;2022-07-11T02:44:08;0.60;;;0.60;;
17614;SDS011;8926;49.720;6.576;2022-07-11T02:46:33;0.50;;;0.50;;
17614;SDS011;8926;49.720;6.576;2022-07-11T02:48:58;0.60;;;0.60;;
17614;SDS011;8926;49.720;6.576;2022-07-11T02:51:24;0.60;;;0.60;;
17614;SDS011;8926;49.720;6.576;2022-07-11T02:53:49;0.70;;;0.70;;
17614;SDS011;8926;49.720;6.576;2022-07-11T02:56:14;0.77;;;0.77;;
17614;SDS011;8926;49.720;6.576;2022-07-11T02:58:39;0.73;;;0.73;;
17614;SDS011;8926;49.720;6.576;2022-07-11T03:01:05;0.50;;;0.50;;
17614;SDS011;8926;49.720;6.576;2022-07-11T03:03:30;0.77;;;0.77;;
17614;SDS011;8926;49.720;6.576;2022-07-11T03:05:55;0.70;;;0.70;;
17614;SDS011;8926;49.720;6.576;2022-07-11T03:08:21;0.60;;;0.60;;
17614;SDS011;8926;49.720;6.576;2022-07-11T03:10:46;0.47;;;0.47;;
17614;SDS011;8926;49.720;6.576;2022-07-11T03:13:11;0.80;;;0.80;;
17614;SDS011;8926;49.720;6.576;2022-07-11T03:15:37;1.00;;;1.00;;
17614;SDS011;8926;49.720;6.576;2022-07-11T03:18:02;0.80;;;0.80;;
17614;SDS011;8926;49.720;6.576;2022-07-11T03:20:28;0.60;;;0.60;;
17614;SDS011;8926;49.720;6.576;2022-07-11T03:22:53;0.50;;;0.50;;
17614;SDS011;8926;49.720;6.576;2022-07-11T03:25:18;0.70;;;0.60;;
17614;SDS011;8926;49.720;6.576;2022-07-11T03:27:43;0.70;;;0.70;;
17614;SDS011;8926;49.720;6.576;2022-07-11T03:30:09;0.70;;;0.70;;
17614;SDS011;8926;49.720;6.576;2022-07-11T03:32:35;0.70;;;0.70;;
17614;SDS011;8926;49.720;6.576;2022-07-11T03:35:00;0.80;;;0.80;;
17614;SDS011;8926;49.720;6.576;2022-07-11T03:37:44;0.80;;;0.80;;
17614;SDS011;8926;49.720;6.576;2022-07-11T03:40:09;0.63;;;0.63;;
17614;SDS011;8926;49.720;6.576;2022-07-11T03:42:35;0.50;;;0.50;;
17614;SDS011;8926;49.720;6.576;2022-07-11T03:45:00;0.60;;;0.60;;
17614;SDS011;8926;49.720;6.576;2022-07-11T03:47:26;0.50;;;0.50;;
17614;SDS011;8926;49.720;6.576;2022-07-11T03:49:51;0.63;;;0.63;;
17614;SDS011;8926;49.720;6.576;2022-07-11T03:52:16;0.90;;;0.90;;
17614;SDS011;8926;49.720;6.576;2022-07-11T03:54:41;0.60;;;0.60;;
17614;SDS011;8926;49.720;6.576;2022-07-11T03:57:08;0.70;;;0.70;;
17614;SDS011;8926;49.720;6.576;2022-07-11T03:59:33;1.10;;;0.80;;
17614;SDS011;8926;49.720;6.576;2022-07-11T04:01:59;0.60;;;0.60;;
17614;SDS011;8926;49.720;6.576;2022-07-11T04:04:24;0.70;;;0.70;;
17614;SDS011;8926;49.720;6.576;2022-07-11T04:06:49;0.90;;;0.87;;
17614;SDS011;8926;49.720;6.576;2022-07-11T04:09:14;0.70;;;0.70;;
17614;SDS011;8926;49.720;6.576;2022-07-11T04:11:40;0.80;;;0.80;;
17614;SDS011;8926;49.720;6.576;2022-07-11T04:14:05;0.70;;;0.70;;
17614;SDS011;8926;49.720;6.576;2022-07-11T04:16:31;0.70;;;0.70;;
17614;SDS011;8926;49.720;6.576;2022-07-11T04:18:56;0.70;;;0.70;;
17614;SDS011;8926;49.720;6.576;2022-07-11T04:21:21;0.70;;;0.70;;
17614;SDS011;8926;49.720;6.576;2022-07-11T04:23:46;0.77;;;0.77;;
17614;SDS011;8926;49.720;6.576;2022-07-11T04:26:12;0.80;;;0.80;;
17614;SDS011;8926;49.720;6.576;2022-07-11T04:28:37;0.70;;;0.70;;
17614;SDS011;8926;49.720;6.576;2022-07-11T04:31:03;0.70;;;0.70;;
17614;SDS011;8926;49.720;6.576;2022-07-11T04:33:28;0.80;;;0.80;;
17614;SDS011;8926;49.720;6.576;2022-07-11T04:35:54;0.80;;;0.80;;
17614;SDS011;8926;49.720;6.576;2022-07-11T04:38:19;0.60;;;0.60;;
17614;SDS011;8926;49.720;6.576;2022-07-11T04:40:48;0.80;;;0.80;;
17614;SDS011;8926;49.720;6.576;2022-07-11T04:43:14;2.10;;;1.10;;
17614;SDS011;8926;49.720;6.576;2022-07-11T04:45:40;1.00;;;1.00;;
17614;SDS011;8926;49.720;6.576;2022-07-11T04:48:05;0.90;;;0.90;;
17614;SDS011;8926;49.720;6.576;2022-07-11T04:50:30;0.93;;;0.93;;
17614;SDS011;8926;49.720;6.576;2022-07-11T04:52:56;0.90;;;0.90;;
17614;SDS011;8926;49.720;6.576;2022-07-11T04:55:21;0.73;;;0.73;;
17614;SDS011;8926;49.720;6.576;2022-07-11T04:57:47;0.97;;;0.97;;
17614;SDS011;8926;49.720;6.576;2022-07-11T05:00:12;0.80;;;0.80;;
17614;SDS011;8926;49.720;6.576;2022-07-11T05:02:38;0.70;;;0.70;;
17614;SDS011;8926;49.720;6.576;2022-07-11T05:05:03;0.70;;;0.70;;
17614;SDS011;8926;49.720;6.576;2022-07-11T05:07:29;0.80;;;0.80;;
17614;SDS011;8926;49.720;6.576;2022-07-11T05:09:54;0.93;;;0.93;;
17614;SDS011;8926;49.720;6.576;2022-07-11T05:12:19;0.80;;;0.80;;
17614;SDS011;8926;49.720;6.576;2022-07-11T05:14:45;0.90;;;0.90;;
17614;SDS011;8926;49.720;6.576;2022-07-11T05:17:10;0.97;;;0.90;;
17614;SDS011;8926;49.720;6.576;2022-07-11T05:19:36;1.10;;;1.03;;
17614;SDS011;8926;49.720;6.576;2022-07-11T05:22:01;1.13;;;1.03;;
17614;SDS011;8926;49.720;6.576;2022-07-11T05:24:26;0.70;;;0.70;;
17614;SDS011;8926;49.720;6.576;2022-07-11T05:26:52;0.70;;;0.70;;
17614;SDS011;8926;49.720;6.576;2022-07-11T05:29:17;0.70;;;0.70;;
17614;SDS011;8926;49.720;6.576;2022-07-11T05:31:42;0.70;;;0.70;;
17614;SDS011;8926;49.720;6.576;2022-07-11T05:34:14;0.70;;;0.70;;
17614;SDS011;8926;49.720;6.576;2022-07-11T05:36:40;0.80;;;0.80;;
17614;SDS011;8926;49.720;6.576;2022-07-11T05:39:05;0.90;;;0.90;;
17614;SDS011;8926;49.720;6.576;2022-07-11T05:41:30;0.70;;;0.70;;
17614;SDS011;8926;49.720;6.576;2022-07-11T05:43:56;1.43;;;0.87;;
17614;SDS011;8926;49.720;6.576;2022-07-11T05:46:21;0.70;;;0.70;;
17614;SDS011;8926;49.720;6.576;2022-07-11T05:48:46;0.80;;;0.80;;
17614;SDS011;8926;49.720;6.576;2022-07-11T05:51:11;0.63;;;0.63;;
17614;SDS011;8926;49.720;6.576;2022-07-11T05:53:38;0.87;;;0.87;;
17614;SDS011;8926;49.720;6.576;2022-07-11T05:56:04;1.07;;;0.80;;
17614;SDS011;8926;49.720;6.576;2022-07-11T05:58:29;1.37;;;1.00;;
17614;SDS011;8926;49.720;6.576;2022-07-11T06:00:57;0.87;;;0.87;;
17614;SDS011;8926;49.720;6.576;2022-07-11T06:03:23;0.70;;;0.70;;
17614;SDS011;8926;49.720;6.576;2022-07-11T06:05:48;0.80;;;0.73;;
17614;SDS011;8926;49.720;6.576;2022-07-11T06:08:14;1.37;;;0.80;;
17614;SDS011;8926;49.720;6.576;2022-07-11T06:10:58;0.80;;;0.80;;
17614;SDS011;8926;49.720;6.576;2022-07-11T06:13:23;1.07;;;1.07;;
17614;SDS011;8926;49.720;6.576;2022-07-11T06:15:49;1.20;;;1.10;;
17614;SDS011;8926;49.720;6.576;2022-07-11T06:18:14;0.87;;;0.80;;
17614;SDS011;8926;49.720;6.576;2022-07-11T06:20:39;1.00;;;1.00;;
17614;SDS011;8926;49.720;6.576;2022-07-11T06:23:04;1.67;;;1.20;;
17614;SDS011;8926;49.720;6.576;2022-07-11T06:25:31;0.90;;;0.90;;
17614;SDS011;8926;49.720;6.576;2022-07-11T06:27:57;1.27;;;0.90;;
17614;SDS011;8926;49.720;6.576;2022-07-11T06:30:22;0.90;;;0.90;;
17614;SDS011;8926;49.720;6.576;2022-07-11T06:32:47;1.00;;;1.00;;
17614;SDS011;8926;49.720;6.576;2022-07-11T06:35:12;0.90;;;0.90;;
17614;SDS011;8926;49.720;6.576;2022-07-11T06:37:38;1.00;;;0.90;;
17614;SDS011;8926;49.720;6.576;2022-07-11T06:40:03;0.70;;;0.70;;
17614;SDS011;8926;49.720;6.576;2022-07-11T06:42:34;0.77;;;0.77;;
17614;SDS011;8926;49.720;6.576;2022-07-11T06:45:00;1.43;;;1.33;;
17614;SDS011;8926;49.720;6.576;2022-07-11T06:47:25;1.00;;;1.00;;
17614;SDS011;8926;49.720;6.576;2022-07-11T06:49:51;0.93;;;0.93;;
17614;SDS011;8926;49.720;6.576;2022-07-11T06:52:16;0.73;;;0.73;;
17614;SDS011;8926;49.720;6.576;2022-07-11T06:54:42;1.40;;;1.30;;
17614;SDS011;8926;49.720;6.576;2022-07-11T06:57:07;0.80;;;0.80;;
17614;SDS011;8926;49.720;6.576;2022-07-11T06:59:32;2.20;;;1.53;;
17614;SDS011;8926;49.720;6.576;2022-07-11T07:01:57;1.33;;;1.23;;
17614;SDS011;8926;49.720;6.576;2022-07-11T07:04:23;0.93;;;0.93;;
17614;SDS011;8926;49.720;6.576;2022-07-11T07:06:49;3.53;;;1.90;;
17614;SDS011;8926;49.720;6.576;2022-07-11T07:09:14;1.80;;;1.70;;
17614;SDS011;8926;49.720;6.576;2022-07-11T07:11:39;1.30;;;1.20;;
17614;SDS011;8926;49.720;6.576;2022-07-11T07:14:05;1.20;;;1.10;;
17614;SDS011;8926;49.720;6.576;2022-07-11T07:16:30;2.80;;;1.20;;
17614;SDS011;8926;49.720;6.576;2022-07-11T07:18:55;1.00;;;1.00;;
17614;SDS011;8926;49.720;6.576;2022-07-11T07:21:20;1.10;;;1.10;;
17614;SDS011;8926;49.720;6.576;2022-07-11T07:23:46;1.50;;;1.20;;
17614;SDS011;8926;49.720;6.576;2022-07-11T07:26:11;1.27;;;1.13;;
17614;SDS011;8926;49.720;6.576;2022-07-11T07:28:36;1.33;;;0.80;;
17614;SDS011;8926;49.720;6.576;2022-07-11T07:31:03;1.00;;;1.00;;
17614;SDS011;8926;49.720;6.576;2022-07-11T07:33:29;1.00;;;0.83;;
17614;SDS011;8926;49.720;6.576;2022-07-11T07:35:54;0.80;;;0.80;;
17614;SDS011;8926;49.720;6.576;2022-07-11T07:38:20;0.90;;;0.90;;
17614;SDS011;8926;49.720;6.576;2022-07-11T07:40:45;0.60;;;0.60;;
17614;SDS011;8926;49.720;6.576;2022-07-11T07:43:10;0.70;;;0.70;;
17614;SDS011;8926;49.720;6.576;2022-07-11T07:45:35;0.57;;;0.57;;
17614;SDS011;8926;49.720;6.576;2022-07-11T07:48:01;0.60;;;0.60;;
17614;SDS011;8926;49.720;6.576;2022-07-11T07:50:26;0.40;;;0.40;;
17614;SDS011;8926;49.720;6.576;2022-07-11T07:52:52;0.50;;;0.50;;
17614;SDS011;8926;49.720;6.576;2022-07-11T07:55:17;0.50;;;0.50;;
17614;SDS011;8926;49.720;6.576;2022-07-11T07:57:43;0.70;;;0.60;;
17614;SDS011;8926;49.720;6.576;2022-07-11T08:00:09;0.50;;;0.50;;
17614;SDS011;8926;49.720;6.576;2022-07-11T08:02:53;0.50;;;0.50;;
17614;SDS011;8926;49.720;6.576;2022-07-11T08:05:18;0.30;;;0.30;;
17614;SDS011;8926;49.720;6.576;2022-07-11T08:07:44;0.50;;;0.50;;
17614;SDS011;8926;49.720;6.576;2022-07-11T08:10:09;0.60;;;0.60;;
17614;SDS011;8926;49.720;6.576;2022-07-11T08:12:35;0.50;;;0.50;;
17614;SDS011;8926;49.720;6.576;2022-07-11T08:15:00;0.30;;;0.30;;
17614;SDS011;8926;49.720;6.576;2022-07-11T08:17:26;0.50;;;0.50;;
17614;SDS011;8926;49.720;6.576;2022-07-11T08:19:51;0.43;;;0.43;;
17614;SDS011;8926;49.720;6.576;2022-07-11T08:22:17;1.17;;;0.60;;
17614;SDS011;8926;49.720;6.576;2022-07-11T08:24:42;0.40;;;0.40;;
17614;SDS011;8926;49.720;6.576;2022-07-11T08:27:08;0.50;;;0.50;;
17614;SDS011;8926;49.720;6.576;2022-07-11T08:29:33;0.40;;;0.40;;
17614;SDS011;8926;49.720;6.576;2022-07-11T08:31:59;0.40;;;0.40;;
17614;SDS011;8926;49.720;6.576;2022-07-11T08:34:24;0.60;;;0.60;;
17614;SDS011;8926;49.720;6.576;2022-07-11T08:36:50;0.30;;;0.30;;
17614;SDS011;8926;49.720;6.576;2022-07-11T08:39:16;0.50;;;0.50;;
17614;SDS011;8926;49.720;6.576;2022-07-11T08:41:44;0.57;;;0.53;;
17614;SDS011;8926;49.720;6.576;2022-07-11T08:44:13;0.43;;;0.43;;
17614;SDS011;8926;49.720;6.576;2022-07-11T08:46:40;0.40;;;0.40;;
17614;SDS011;8926;49.720;6.576;2022-07-11T08:49:06;0.40;;;0.40;;
17614;SDS011;8926;49.720;6.576;2022-07-11T08:51:32;0.70;;;0.60;;
17614;SDS011;8926;49.720;6.576;2022-07-11T08:54:01;0.60;;;0.60;;
17614;SDS011;8926;49.720;6.576;2022-07-11T08:56:27;0.40;;;0.40;;
17614;SDS011;8926;49.720;6.576;2022-07-11T08:58:52;0.80;;;0.80;;
17614;SDS011;8926;49.720;6.576;2022-07-11T09:01:18;0.50;;;0.50;;
17614;SDS011;8926;49.720;6.576;2022-07-11T09:03:48;0.40;;;0.40;;
17614;SDS011;8926;49.720;6.576;2022-07-11T09:06:14;0.90;;;0.90;;
17614;SDS011;8926;49.720;6.576;2022-07-11T09:08:40;1.23;;;0.80;;
17614;SDS011;8926;49.720;6.576;2022-07-11T09:11:05;0.77;;;0.77;;
17614;SDS011;8926;49.720;6.576;2022-07-11T09:13:31;0.93;;;0.90;;
17614;SDS011;8926;49.720;6.576;2022-07-11T09:16:02;0.73;;;0.73;;
17614;SDS011;8926;49.720;6.576;2022-07-11T09:18:33;0.57;;;0.50;;
17614;SDS011;8926;49.720;6.576;2022-07-11T09:21:00;0.80;;;0.80;;
17614;SDS011;8926;49.720;6.576;2022-07-11T09:23:45;0.87;;;0.80;;
17614;SDS011;8926;49.720;6.576;2022-07-11T09:26:30;1.17;;;1.07;;
17614;SDS011;8926;49.720;6.576;2022-07-11T09:29:10;0.90;;;0.90;;
17614;SDS011;8926;49.720;6.576;2022-07-11T09:31:37;1.23;;;0.90;;
17614;SDS011;8926;49.720;6.576;2022-07-11T09:34:05;1.10;;;0.97;;
17614;SDS011;8926;49.720;6.576;2022-07-11T09:36:37;1.03;;;1.03;;
17614;SDS011;8926;49.720;6.576;2022-07-11T09:39:07;0.60;;;0.60;;
17614;SDS011;8926;49.720;6.576;2022-07-11T09:41:35;0.70;;;0.70;;
17614;SDS011;8926;49.720;6.576;2022-07-11T09:44:20;1.00;;;1.00;;
17614;SDS011;8926;49.720;6.576;2022-07-11T09:46:48;1.00;;;1.00;;
17614;SDS011;8926;49.720;6.576;2022-07-11T09:49:15;1.30;;;1.30;;
17614;SDS011;8926;49.720;6.576;2022-07-11T09:51:43;0.70;;;0.70;;
17614;SDS011;8926;49.720;6.576;2022-07-11T09:54:09;0.80;;;0.80;;
17614;SDS011;8926;49.720;6.576;2022-07-11T09:56:40;0.80;;;0.80;;
17614;SDS011;8926;49.720;6.576;2022-07-11T09:59:07;0.90;;;0.90;;
17614;SDS011;8926;49.720;6.576;2022-07-11T10:01:34;0.90;;;0.90;;
17614;SDS011;8926;49.720;6.576;2022-07-11T10:04:00;1.00;;;1.00;;
17614;SDS011;8926;49.720;6.576;2022-07-11T10:06:25;1.40;;;1.30;;
17614;SDS011;8926;49.720;6.576;2022-07-11T10:08:52;1.60;;;1.50;;
17614;SDS011;8926;49.720;6.576;2022-07-11T10:11:18;1.17;;;1.17;;
17614;SDS011;8926;49.720;6.576;2022-07-11T10:13:44;1.27;;;1.23;;
17614;SDS011;8926;49.720;6.576;2022-07-11T10:16:15;0.90;;;0.90;;
17614;SDS011;8926;49.720;6.576;2022-07-11T10:18:55;1.20;;;1.20;;
17614;SDS011;8926;49.720;6.576;2022-07-11T10:21:31;1.40;;;1.30;;
17614;SDS011;8926;49.720;6.576;2022-07-11T10:26:55;1.33;;;1.27;;
17614;SDS011;8926;49.720;6.576;2022-07-11T10:29:39;1.10;;;1.10;;
17614;SDS011;8926;49.720;6.576;2022-07-11T10:32:16;1.03;;;1.03;;
17614;SDS011;8926;49.720;6.576;2022-07-11T10:34:41;0.90;;;0.90;;
17614;SDS011;8926;49.720;6.576;2022-07-11T10:37:08;1.10;;;1.10;;
17614;SDS011;8926;49.720;6.576;2022-07-11T10:39:35;1.60;;;1.50;;
17614;SDS011;8926;49.720;6.576;2022-07-11T10:42:03;1.40;;;1.40;;
17614;SDS011;8926;49.720;6.576;2022-07-11T10:47:33;1.50;;;1.40;;
17614;SDS011;8926;49.720;6.576;2022-07-11T10:50:00;1.70;;;1.60;;
17614;SDS011;8926;49.720;6.576;2022-07-11T10:52:31;2.07;;;1.97;;
17614;SDS011;8926;49.720;6.576;2022-07-11T11:00:41;1.50;;;1.50;;
17614;SDS011;8926;49.720;6.576;2022-07-11T11:03:08;1.53;;;1.47;;
17614;SDS011;8926;49.720;6.576;2022-07-11T11:05:42;1.20;;;1.20;;
17614;SDS011;8926;49.720;6.576;2022-07-11T11:08:49;1.30;;;1.30;;
17614;SDS011;8926;49.720;6.576;2022-07-11T11:13:45;1.80;;;1.70;;
17614;SDS011;8926;49.720;6.576;2022-07-11T11:16:20;1.50;;;1.40;;
17614;SDS011;8926;49.720;6.576;2022-07-11T11:18:49;1.53;;;1.43;;
17614;SDS011;8926;49.720;6.576;2022-07-11T11:21:15;1.80;;;1.70;;
17614;SDS011;8926;49.720;6.576;2022-07-11T11:26:24;1.93;;;1.83;;
17614;SDS011;8926;49.720;6.576;2022-07-11T11:31:28;1.77;;;1.67;;
17614;SDS011;8926;49.720;6.576;2022-07-11T11:33:58;2.43;;;2.33;;
17614;SDS011;8926;49.720;6.576;2022-07-11T11:36:24;1.87;;;1.77;;
17614;SDS011;8926;49.720;6.576;2022-07-11T11:38:50;1.80;;;1.70;;
17614;SDS011;8926;49.720;6.576;2022-07-11T11:41:23;2.10;;;2.00;;
17614;SDS011;8926;49.720;6.576;2022-07-11T11:43:51;1.70;;;1.60;;
17614;SDS011;8926;49.720;6.576;2022-07-11T11:46:17;2.10;;;2.00;;
17614;SDS011;8926;49.720;6.576;2022-07-11T11:48:43;2.10;;;2.00;;
17614;SDS011;8926;49.720;6.576;2022-07-11T11:53:38;1.93;;;1.83;;
17614;SDS011;8926;49.720;6.576;2022-07-11T11:56:21;1.77;;;1.67;;
17614;SDS011;8926;49.720;6.576;2022-07-11T11:58:54;1.40;;;1.40;;
17614;SDS011;8926;49.720;6.576;2022-07-11T12:01:24;1.83;;;1.60;;
17614;SDS011;8926;49.720;6.576;2022-07-11T12:03:55;1.90;;;1.80;;
17614;SDS011;8926;49.720;6.576;2022-07-11T12:06:23;1.70;;;1.60;;
17614;SDS011;8926;49.720;6.576;2022-07-11T12:08:50;1.87;;;1.77;;
17614;SDS011;8926;49.720;6.576;2022-07-11T12:11:16;2.27;;;2.17;;
17614;SDS011;8926;49.720;6.576;2022-07-11T12:13:42;1.83;;;1.73;;
17614;SDS011;8926;49.720;6.576;2022-07-11T12:16:15;1.70;;;1.60;;
17614;SDS011;8926;49.720;6.576;2022-07-11T12:19:00;1.20;;;1.20;;
17614;SDS011;8926;49.720;6.576;2022-07-11T12:21:30;1.80;;;1.70;;
17614;SDS011;8926;49.720;6.576;2022-07-11T12:23:59;2.07;;;1.70;;
17614;SDS011;8926;49.720;6.576;2022-07-11T12:26:28;1.60;;;1.50;;
17614;SDS011;8926;49.720;6.576;2022-07-11T12:29:11;1.50;;;1.50;;
17614;SDS011;8926;49.720;6.576;2022-07-11T12:31:53;1.47;;;1.37;;
17614;SDS011;8926;49.720;6.576;2022-07-11T12:37:10;2.00;;;1.90;;
17614;SDS011;8926;49.720;6.576;2022-07-11T12:39:38;2.07;;;1.87;;
17614;SDS011;8926;49.720;6.576;2022-07-11T12:44:55;1.50;;;1.40;;
17614;SDS011;8926;49.720;6.576;2022-07-11T12:47:26;1.80;;;1.70;;
17614;SDS011;8926;49.720;6.576;2022-07-11T12:49:53;2.97;;;1.70;;
17614;SDS011;8926;49.720;6.576;2022-07-11T12:52:19;1.80;;;1.70;;
17614;SDS011;8926;49.720;6.576;2022-07-11T12:54:45;1.80;;;1.70;;
17614;SDS011;8926;49.720;6.576;2022-07-11T12:57:14;1.80;;;1.70;;
17614;SDS011;8926;49.720;6.576;2022-07-11T12:59:41;2.00;;;1.90;;
17614;SDS011;8926;49.720;6.576;2022-07-11T13:02:07;2.03;;;1.93;;
17614;SDS011;8926;49.720;6.576;2022-07-11T13:04:37;2.30;;;2.13;;
17614;SDS011;8926;49.720;6.576;2022-07-11T13:07:32;1.50;;;1.50;;
17614;SDS011;8926;49.720;6.576;2022-07-11T13:10:19;1.80;;;1.70;;
17614;SDS011;8926;49.720;6.576;2022-07-11T13:12:46;1.70;;;1.60;;
17614;SDS011;8926;49.720;6.576;2022-07-11T13:15:14;1.30;;;1.30;;
17614;SDS011;8926;49.720;6.576;2022-07-11T13:17:43;1.53;;;1.47;;
17614;SDS011;8926;49.720;6.576;2022-07-11T13:22:40;1.80;;;1.70;;
17614;SDS011;8926;49.720;6.576;2022-07-11T13:25:06;1.67;;;1.57;;
17614;SDS011;8926;49.720;6.576;2022-07-11T13:27:32;1.60;;;1.60;;
17614;SDS011;8926;49.720;6.576;2022-07-11T13:29:59;1.50;;;1.50;;
17614;SDS011;8926;49.720;6.576;2022-07-11T13:32:24;1.33;;;1.33;;
17614;SDS011;8926;49.720;6.576;2022-07-11T13:34:50;1.60;;;1.50;;
17614;SDS011;8926;49.720;6.576;2022-07-11T13:37:16;1.80;;;1.70;;
17614;SDS011;8926;49.720;6.576;2022-07-11T13:39:42;1.70;;;1.60;;
17614;SDS011;8926;49.720;6.576;2022-07-11T13:42:07;1.50;;;1.40;;
17614;SDS011;8926;49.720;6.576;2022-07-11T13:44:32;1.70;;;1.60;;
17614;SDS011;8926;49.720;6.576;2022-07-11T13:46:58;2.17;;;1.40;;
17614;SDS011;8926;49.720;6.576;2022-07-11T13:49:23;1.17;;;1.17;;
17614;SDS011;8926;49.720;6.576;2022-07-11T13:51:48;1.50;;;1.40;;
17614;SDS011;8926;49.720;6.576;2022-07-11T13:54:14;1.23;;;1.23;;
17614;SDS011;8926;49.720;6.576;2022-07-11T13:56:39;1.93;;;1.27;;
17614;SDS011;8926;49.720;6.576;2022-07-11T13:59:04;1.20;;;1.20;;
17614;SDS011;8926;49.720;6.576;2022-07-11T14:01:30;0.90;;;0.90;;
17614;SDS011;8926;49.720;6.576;2022-07-11T14:03:55;0.97;;;0.97;;
17614;SDS011;8926;49.720;6.576;2022-07-11T14:06:22;1.10;;;1.10;;
17614;SDS011;8926;49.720;6.576;2022-07-11T14:08:47;0.77;;;0.77;;
17614;SDS011;8926;49.720;6.576;2022-07-11T14:11:12;0.80;;;0.80;;
17614;SDS011;8926;49.720;6.576;2022-07-11T14:13:38;1.63;;;1.10;;
17614;SDS011;8926;49.720;6.576;2022-07-11T14:16:03;1.27;;;0.90;;
17614;SDS011;8926;49.720;6.576;2022-07-11T14:18:31;0.77;;;0.77;;
17614;SDS011;8926;49.720;6.576;2022-07-11T14:20:56;0.80;;;0.80;;
17614;SDS011;8926;49.720;6.576;2022-07-11T14:23:22;1.70;;;1.07;;
17614;SDS011;8926;49.720;6.576;2022-07-11T14:25:49;0.93;;;0.83;;
17614;SDS011;8926;49.720;6.576;2022-07-11T14:28:16;0.80;;;0.80;;
17614;SDS011;8926;49.720;6.576;2022-07-11T14:30:42;0.70;;;0.60;;
17614;SDS011;8926;49.720;6.576;2022-07-11T14:33:08;1.23;;;0.80;;
17614;SDS011;8926;49.720;6.576;2022-07-11T14:35:34;0.70;;;0.70;;
17614;SDS011;8926;49.720;6.576;2022-07-11T14:37:59;0.90;;;0.90;;
17614;SDS011;8926;49.720;6.576;2022-07-11T14:40:25;0.90;;;0.90;;
17614;SDS011;8926;49.720;6.576;2022-07-11T14:42:50;1.00;;;1.00;;
17614;SDS011;8926;49.720;6.576;2022-07-11T14:45:16;0.60;;;0.60;;
17614;SDS011;8926;49.720;6.576;2022-07-11T14:47:42;0.97;;;0.97;;
17614;SDS011;8926;49.720;6.576;2022-07-11T14:50:07;0.70;;;0.70;;
17614;SDS011;8926;49.720;6.576;2022-07-11T14:52:34;0.70;;;0.70;;
17614;SDS011;8926;49.720;6.576;2022-07-11T14:54:59;0.97;;;0.97;;
17614;SDS011;8926;49.720;6.576;2022-07-11T14:57:24;0.73;;;0.73;;
17614;SDS011;8926;49.720;6.576;2022-07-11T14:59:50;0.90;;;0.90;;
17614;SDS011;8926;49.720;6.576;2022-07-11T15:02:16;1.00;;;1.00;;
17614;SDS011;8926;49.720;6.576;2022-07-11T15:04:41;0.90;;;0.90;;
17614;SDS011;8926;49.720;6.576;2022-07-11T15:07:06;0.90;;;0.90;;
17614;SDS011;8926;49.720;6.576;2022-07-11T15:09:50;0.70;;;0.70;;
17614;SDS011;8926;49.720;6.576;2022-07-11T15:12:34;0.73;;;0.73;;
17614;SDS011;8926;49.720;6.576;2022-07-11T15:14:59;1.13;;;1.13;;
17614;SDS011;8926;49.720;6.576;2022-07-11T15:17:24;0.93;;;0.93;;
17614;SDS011;8926;49.720;6.576;2022-07-11T15:19:50;0.83;;;0.83;;
17614;SDS011;8926;49.720;6.576;2022-07-11T15:22:15;1.00;;;1.00;;
17614;SDS011;8926;49.720;6.576;2022-07-11T15:24:41;1.30;;;1.30;;
17614;SDS011;8926;49.720;6.576;2022-07-11T15:27:07;0.90;;;0.90;;
17614;SDS011;8926;49.720;6.576;2022-07-11T15:29:32;1.17;;;1.17;;
17614;SDS011;8926;49.720;6.576;2022-07-11T15:31:58;1.20;;;1.13;;